< < Back
Terminal Aerodrome Forecast


Current Version              Previous Versions:   1  2  3  4  5  6  7  8  9  

Terminal Aerodrome Forecast

033
FTUS42 KCAE 191700
TAFCAE
TAF
KCAE 191738Z 1918/2018 03012G22KT 6SM -RA BR SCT009 OVC012
      TEMPO 1918/1922 3SM -DZ BR BKN007
     FM200300 01012G21KT 5SM -DZ OVC007
     FM201300 04016G22KT P6SM BKN020=



Latest METAR

955
SAUS80 KWBC 200300 CCA
MTRCAE
METAR KCAE 200256Z 02012KT 3SM -RA BR OVC011 11/09 A3015 RMK AO2 RAB00
SLP210 P0002 60002 T01110094 51015


USA.gov is the U.S. government's official web portal to all federal, state and local government web resources and services.